sensor_id;sensor_type;location;lat;lon;timestamp;P1;durP1;ratioP1;P2;durP2;ratioP2
9288;SDS011;4683;50.864;12.086;2022-12-05T00:01:34;247.57;;;55.70;;
9288;SDS011;4683;50.864;12.086;2022-12-05T00:04:08;251.13;;;57.60;;
9288;SDS011;4683;50.864;12.086;2022-12-05T00:06:38;214.33;;;53.87;;
9288;SDS011;4683;50.864;12.086;2022-12-05T00:09:08;301.70;;;57.13;;
9288;SDS011;4683;50.864;12.086;2022-12-05T00:11:39;249.03;;;55.77;;
9288;SDS011;4683;50.864;12.086;2022-12-05T00:14:09;289.37;;;60.27;;
9288;SDS011;4683;50.864;12.086;2022-12-05T00:16:40;224.87;;;48.30;;
9288;SDS011;4683;50.864;12.086;2022-12-05T00:19:11;253.53;;;58.50;;
9288;SDS011;4683;50.864;12.086;2022-12-05T00:21:41;246.37;;;56.17;;
9288;SDS011;4683;50.864;12.086;2022-12-05T00:24:11;270.13;;;56.30;;
9288;SDS011;4683;50.864;12.086;2022-12-05T00:26:42;254.97;;;54.00;;
9288;SDS011;4683;50.864;12.086;2022-12-05T00:29:10;185.80;;;52.37;;
9288;SDS011;4683;50.864;12.086;2022-12-05T00:31:38;206.87;;;54.47;;
9288;SDS011;4683;50.864;12.086;2022-12-05T00:34:07;258.73;;;61.80;;
9288;SDS011;4683;50.864;12.086;2022-12-05T00:36:36;171.73;;;47.90;;
9288;SDS011;4683;50.864;12.086;2022-12-05T00:39:06;228.93;;;58.17;;
9288;SDS011;4683;50.864;12.086;2022-12-05T00:41:37;337.10;;;62.77;;
9288;SDS011;4683;50.864;12.086;2022-12-05T00:44:05;203.33;;;53.00;;
9288;SDS011;4683;50.864;12.086;2022-12-05T00:46:35;167.07;;;48.93;;
9288;SDS011;4683;50.864;12.086;2022-12-05T00:49:03;210.83;;;53.47;;
9288;SDS011;4683;50.864;12.086;2022-12-05T00:51:34;310.80;;;61.30;;
9288;SDS011;4683;50.864;12.086;2022-12-05T00:54:07;205.47;;;50.60;;
9288;SDS011;4683;50.864;12.086;2022-12-05T00:56:38;213.00;;;53.23;;
9288;SDS011;4683;50.864;12.086;2022-12-05T00:59:07;167.00;;;48.67;;
9288;SDS011;4683;50.864;12.086;2022-12-05T01:01:39;145.73;;;47.97;;
9288;SDS011;4683;50.864;12.086;2022-12-05T01:04:10;146.17;;;45.13;;
9288;SDS011;4683;50.864;12.086;2022-12-05T01:06:43;144.07;;;43.77;;
9288;SDS011;4683;50.864;12.086;2022-12-05T01:09:11;117.67;;;41.20;;
9288;SDS011;4683;50.864;12.086;2022-12-05T01:11:42;134.33;;;45.03;;
9288;SDS011;4683;50.864;12.086;2022-12-05T01:14:10;94.97;;;39.73;;
9288;SDS011;4683;50.864;12.086;2022-12-05T01:16:41;101.00;;;39.73;;
9288;SDS011;4683;50.864;12.086;2022-12-05T01:19:12;78.23;;;37.77;;
9288;SDS011;4683;50.864;12.086;2022-12-05T01:21:44;101.90;;;40.90;;
9288;SDS011;4683;50.864;12.086;2022-12-05T01:24:13;85.40;;;38.13;;
9288;SDS011;4683;50.864;12.086;2022-12-05T01:26:43;85.00;;;34.97;;
9288;SDS011;4683;50.864;12.086;2022-12-05T01:29:12;80.30;;;34.53;;
9288;SDS011;4683;50.864;12.086;2022-12-05T01:31:42;70.90;;;36.17;;
9288;SDS011;4683;50.864;12.086;2022-12-05T01:34:11;72.77;;;36.13;;
9288;SDS011;4683;50.864;12.086;2022-12-05T01:36:43;70.00;;;34.83;;
9288;SDS011;4683;50.864;12.086;2022-12-05T01:39:13;68.67;;;32.17;;
9288;SDS011;4683;50.864;12.086;2022-12-05T01:41:42;66.40;;;34.40;;
9288;SDS011;4683;50.864;12.086;2022-12-05T01:47:29;67.63;;;33.13;;
9288;SDS011;4683;50.864;12.086;2022-12-05T01:50:01;66.37;;;32.17;;
9288;SDS011;4683;50.864;12.086;2022-12-05T01:52:32;63.73;;;34.20;;
9288;SDS011;4683;50.864;12.086;2022-12-05T01:55:03;68.77;;;33.13;;
9288;SDS011;4683;50.864;12.086;2022-12-05T01:57:38;64.23;;;32.77;;
9288;SDS011;4683;50.864;12.086;2022-12-05T02:00:08;65.97;;;32.17;;
9288;SDS011;4683;50.864;12.086;2022-12-05T02:02:39;60.13;;;31.83;;
9288;SDS011;4683;50.864;12.086;2022-12-05T02:05:14;55.73;;;31.00;;
9288;SDS011;4683;50.864;12.086;2022-12-05T02:07:48;59.10;;;31.63;;
9288;SDS011;4683;50.864;12.086;2022-12-05T02:10:18;57.70;;;29.80;;
9288;SDS011;4683;50.864;12.086;2022-12-05T02:12:46;49.97;;;28.00;;
9288;SDS011;4683;50.864;12.086;2022-12-05T02:15:28;54.37;;;28.80;;
9288;SDS011;4683;50.864;12.086;2022-12-05T02:18:11;55.57;;;28.00;;
9288;SDS011;4683;50.864;12.086;2022-12-05T02:20:56;52.63;;;28.47;;
9288;SDS011;4683;50.864;12.086;2022-12-05T02:24:01;47.60;;;26.83;;
9288;SDS011;4683;50.864;12.086;2022-12-05T02:27:15;43.17;;;26.00;;
9288;SDS011;4683;50.864;12.086;2022-12-05T02:30:17;50.17;;;26.10;;
9288;SDS011;4683;50.864;12.086;2022-12-05T02:32:53;42.20;;;24.67;;
9288;SDS011;4683;50.864;12.086;2022-12-05T02:35:37;42.27;;;24.87;;
9288;SDS011;4683;50.864;12.086;2022-12-05T02:38:18;45.90;;;25.70;;
9288;SDS011;4683;50.864;12.086;2022-12-05T02:40:56;42.57;;;25.73;;
9288;SDS011;4683;50.864;12.086;2022-12-05T02:43:38;47.67;;;26.37;;
9288;SDS011;4683;50.864;12.086;2022-12-05T02:46:16;47.90;;;27.37;;
9288;SDS011;4683;50.864;12.086;2022-12-05T02:48:48;41.37;;;24.20;;
9288;SDS011;4683;50.864;12.086;2022-12-05T02:51:21;45.20;;;24.70;;
9288;SDS011;4683;50.864;12.086;2022-12-05T02:53:55;47.23;;;25.40;;
9288;SDS011;4683;50.864;12.086;2022-12-05T02:56:28;36.60;;;22.13;;
9288;SDS011;4683;50.864;12.086;2022-12-05T02:59:00;46.57;;;23.97;;
9288;SDS011;4683;50.864;12.086;2022-12-05T03:01:30;37.27;;;23.23;;
9288;SDS011;4683;50.864;12.086;2022-12-05T03:04:00;41.40;;;24.50;;
9288;SDS011;4683;50.864;12.086;2022-12-05T03:06:32;43.60;;;26.10;;
9288;SDS011;4683;50.864;12.086;2022-12-05T03:09:06;39.90;;;24.93;;
9288;SDS011;4683;50.864;12.086;2022-12-05T03:11:40;40.47;;;24.10;;
9288;SDS011;4683;50.864;12.086;2022-12-05T03:14:14;40.07;;;24.33;;
9288;SDS011;4683;50.864;12.086;2022-12-05T03:16:50;34.73;;;22.70;;
9288;SDS011;4683;50.864;12.086;2022-12-05T03:19:20;33.23;;;22.27;;
9288;SDS011;4683;50.864;12.086;2022-12-05T03:21:55;35.30;;;21.37;;
9288;SDS011;4683;50.864;12.086;2022-12-05T03:24:29;37.57;;;22.40;;
9288;SDS011;4683;50.864;12.086;2022-12-05T03:27:04;35.00;;;21.50;;
9288;SDS011;4683;50.864;12.086;2022-12-05T03:29:40;33.27;;;20.30;;
9288;SDS011;4683;50.864;12.086;2022-12-05T03:32:18;33.60;;;20.80;;
9288;SDS011;4683;50.864;12.086;2022-12-05T03:34:54;34.77;;;21.07;;
9288;SDS011;4683;50.864;12.086;2022-12-05T03:37:34;38.37;;;21.90;;
9288;SDS011;4683;50.864;12.086;2022-12-05T03:40:17;33.57;;;20.60;;
9288;SDS011;4683;50.864;12.086;2022-12-05T03:42:56;39.00;;;21.27;;
9288;SDS011;4683;50.864;12.086;2022-12-05T03:45:40;35.43;;;21.07;;
9288;SDS011;4683;50.864;12.086;2022-12-05T03:48:17;35.43;;;20.90;;
9288;SDS011;4683;50.864;12.086;2022-12-05T03:50:53;31.63;;;19.50;;
9288;SDS011;4683;50.864;12.086;2022-12-05T03:53:25;31.17;;;20.33;;
9288;SDS011;4683;50.864;12.086;2022-12-05T03:55:59;31.03;;;19.33;;
9288;SDS011;4683;50.864;12.086;2022-12-05T03:58:34;32.10;;;18.43;;
9288;SDS011;4683;50.864;12.086;2022-12-05T04:01:10;30.03;;;19.57;;
9288;SDS011;4683;50.864;12.086;2022-12-05T04:03:42;29.53;;;19.17;;
9288;SDS011;4683;50.864;12.086;2022-12-05T04:06:17;30.07;;;20.07;;
9288;SDS011;4683;50.864;12.086;2022-12-05T04:08:55;31.83;;;20.53;;
9288;SDS011;4683;50.864;12.086;2022-12-05T04:11:28;30.97;;;20.13;;
9288;SDS011;4683;50.864;12.086;2022-12-05T04:14:03;29.03;;;19.40;;
9288;SDS011;4683;50.864;12.086;2022-12-05T04:16:37;29.80;;;19.63;;
9288;SDS011;4683;50.864;12.086;2022-12-05T04:19:29;29.70;;;18.80;;
9288;SDS011;4683;50.864;12.086;2022-12-05T04:22:22;28.07;;;18.73;;
9288;SDS011;4683;50.864;12.086;2022-12-05T04:24:52;29.73;;;18.57;;
9288;SDS011;4683;50.864;12.086;2022-12-05T04:27:41;24.87;;;16.17;;
9288;SDS011;4683;50.864;12.086;2022-12-05T04:30:20;27.60;;;19.03;;
9288;SDS011;4683;50.864;12.086;2022-12-05T04:32:54;26.73;;;18.63;;
9288;SDS011;4683;50.864;12.086;2022-12-05T04:35:31;25.50;;;18.57;;
9288;SDS011;4683;50.864;12.086;2022-12-05T04:38:04;26.43;;;17.97;;
9288;SDS011;4683;50.864;12.086;2022-12-05T04:40:43;25.90;;;17.57;;
9288;SDS011;4683;50.864;12.086;2022-12-05T04:43:19;22.97;;;16.93;;
9288;SDS011;4683;50.864;12.086;2022-12-05T04:45:49;25.87;;;18.07;;
9288;SDS011;4683;50.864;12.086;2022-12-05T04:48:21;25.37;;;17.43;;
9288;SDS011;4683;50.864;12.086;2022-12-05T04:50:53;27.07;;;18.37;;
9288;SDS011;4683;50.864;12.086;2022-12-05T04:53:24;24.13;;;16.90;;
9288;SDS011;4683;50.864;12.086;2022-12-05T04:55:56;28.20;;;19.43;;
9288;SDS011;4683;50.864;12.086;2022-12-05T04:58:27;27.03;;;17.83;;
9288;SDS011;4683;50.864;12.086;2022-12-05T05:00:58;24.40;;;18.43;;
9288;SDS011;4683;50.864;12.086;2022-12-05T05:03:37;30.03;;;18.90;;
9288;SDS011;4683;50.864;12.086;2022-12-05T05:06:12;29.13;;;18.50;;
9288;SDS011;4683;50.864;12.086;2022-12-05T05:08:45;28.03;;;18.27;;
9288;SDS011;4683;50.864;12.086;2022-12-05T05:11:15;30.27;;;19.47;;
9288;SDS011;4683;50.864;12.086;2022-12-05T05:13:47;28.77;;;18.47;;
9288;SDS011;4683;50.864;12.086;2022-12-05T05:16:17;25.53;;;18.30;;
9288;SDS011;4683;50.864;12.086;2022-12-05T05:18:48;24.70;;;17.57;;
9288;SDS011;4683;50.864;12.086;2022-12-05T05:21:19;26.43;;;18.47;;
9288;SDS011;4683;50.864;12.086;2022-12-05T05:23:50;24.20;;;17.73;;
9288;SDS011;4683;50.864;12.086;2022-12-05T05:26:18;25.07;;;18.73;;
9288;SDS011;4683;50.864;12.086;2022-12-05T05:28:49;28.90;;;19.23;;
9288;SDS011;4683;50.864;12.086;2022-12-05T05:31:18;26.87;;;18.37;;
9288;SDS011;4683;50.864;12.086;2022-12-05T05:33:47;24.73;;;18.13;;
9288;SDS011;4683;50.864;12.086;2022-12-05T05:36:16;24.60;;;17.87;;
9288;SDS011;4683;50.864;12.086;2022-12-05T05:38:48;24.50;;;18.67;;
9288;SDS011;4683;50.864;12.086;2022-12-05T05:41:18;23.63;;;17.60;;
9288;SDS011;4683;50.864;12.086;2022-12-05T05:43:48;25.07;;;17.07;;
9288;SDS011;4683;50.864;12.086;2022-12-05T05:46:19;25.90;;;17.47;;
9288;SDS011;4683;50.864;12.086;2022-12-05T05:48:49;26.73;;;17.97;;
9288;SDS011;4683;50.864;12.086;2022-12-05T05:51:19;24.93;;;17.80;;
9288;SDS011;4683;50.864;12.086;2022-12-05T05:53:50;29.17;;;18.67;;
9288;SDS011;4683;50.864;12.086;2022-12-05T05:56:19;24.43;;;18.10;;
9288;SDS011;4683;50.864;12.086;2022-12-05T05:58:53;23.80;;;17.17;;
9288;SDS011;4683;50.864;12.086;2022-12-05T06:01:22;24.90;;;17.23;;
9288;SDS011;4683;50.864;12.086;2022-12-05T06:03:51;24.30;;;17.20;;
9288;SDS011;4683;50.864;12.086;2022-12-05T06:06:21;25.47;;;16.83;;
9288;SDS011;4683;50.864;12.086;2022-12-05T06:08:51;23.70;;;16.57;;
9288;SDS011;4683;50.864;12.086;2022-12-05T06:11:20;24.90;;;17.13;;
9288;SDS011;4683;50.864;12.086;2022-12-05T06:13:50;23.87;;;15.87;;
9288;SDS011;4683;50.864;12.086;2022-12-05T06:16:20;24.53;;;17.07;;
9288;SDS011;4683;50.864;12.086;2022-12-05T06:18:48;24.57;;;16.43;;
9288;SDS011;4683;50.864;12.086;2022-12-05T06:21:17;22.73;;;17.97;;
9288;SDS011;4683;50.864;12.086;2022-12-05T06:23:48;28.03;;;18.07;;
9288;SDS011;4683;50.864;12.086;2022-12-05T06:26:17;23.20;;;17.30;;
9288;SDS011;4683;50.864;12.086;2022-12-05T06:28:47;22.67;;;17.47;;
9288;SDS011;4683;50.864;12.086;2022-12-05T06:31:16;25.07;;;18.87;;
9288;SDS011;4683;50.864;12.086;2022-12-05T06:33:46;25.87;;;18.97;;
9288;SDS011;4683;50.864;12.086;2022-12-05T06:36:16;25.87;;;18.67;;
9288;SDS011;4683;50.864;12.086;2022-12-05T06:38:48;23.73;;;18.60;;
9288;SDS011;4683;50.864;12.086;2022-12-05T06:41:17;25.00;;;18.63;;
9288;SDS011;4683;50.864;12.086;2022-12-05T06:43:50;23.70;;;17.80;;
9288;SDS011;4683;50.864;12.086;2022-12-05T06:46:20;25.53;;;17.90;;
9288;SDS011;4683;50.864;12.086;2022-12-05T06:48:50;25.43;;;17.77;;
9288;SDS011;4683;50.864;12.086;2022-12-05T06:51:20;21.50;;;17.30;;
9288;SDS011;4683;50.864;12.086;2022-12-05T06:53:50;22.33;;;17.17;;
9288;SDS011;4683;50.864;12.086;2022-12-05T06:56:18;22.57;;;16.90;;
9288;SDS011;4683;50.864;12.086;2022-12-05T06:58:47;22.50;;;17.47;;
9288;SDS011;4683;50.864;12.086;2022-12-05T07:01:18;22.83;;;17.20;;
9288;SDS011;4683;50.864;12.086;2022-12-05T07:04:11;24.67;;;18.40;;
9288;SDS011;4683;50.864;12.086;2022-12-05T07:06:42;26.83;;;17.40;;
9288;SDS011;4683;50.864;12.086;2022-12-05T07:09:12;23.73;;;17.13;;
9288;SDS011;4683;50.864;12.086;2022-12-05T07:11:41;26.20;;;17.60;;
9288;SDS011;4683;50.864;12.086;2022-12-05T07:14:12;26.10;;;17.90;;
9288;SDS011;4683;50.864;12.086;2022-12-05T07:16:40;23.90;;;16.93;;
9288;SDS011;4683;50.864;12.086;2022-12-05T07:19:09;21.93;;;16.83;;
9288;SDS011;4683;50.864;12.086;2022-12-05T07:21:37;23.77;;;16.80;;
9288;SDS011;4683;50.864;12.086;2022-12-05T07:24:06;23.50;;;17.73;;
9288;SDS011;4683;50.864;12.086;2022-12-05T07:26:36;22.30;;;16.47;;
9288;SDS011;4683;50.864;12.086;2022-12-05T07:29:04;21.73;;;16.57;;
9288;SDS011;4683;50.864;12.086;2022-12-05T07:31:33;24.63;;;17.10;;
9288;SDS011;4683;50.864;12.086;2022-12-05T07:34:01;25.47;;;16.90;;
9288;SDS011;4683;50.864;12.086;2022-12-05T07:36:29;23.77;;;16.93;;
9288;SDS011;4683;50.864;12.086;2022-12-05T07:38:59;21.60;;;16.13;;
9288;SDS011;4683;50.864;12.086;2022-12-05T07:41:27;19.90;;;16.20;;
9288;SDS011;4683;50.864;12.086;2022-12-05T07:43:59;24.87;;;16.00;;
9288;SDS011;4683;50.864;12.086;2022-12-05T07:46:28;22.13;;;15.40;;
9288;SDS011;4683;50.864;12.086;2022-12-05T07:48:56;23.07;;;17.07;;
9288;SDS011;4683;50.864;12.086;2022-12-05T07:51:24;21.40;;;15.70;;
9288;SDS011;4683;50.864;12.086;2022-12-05T07:53:52;20.67;;;15.77;;
9288;SDS011;4683;50.864;12.086;2022-12-05T07:56:21;22.57;;;16.17;;
9288;SDS011;4683;50.864;12.086;2022-12-05T07:58:49;21.07;;;15.23;;
9288;SDS011;4683;50.864;12.086;2022-12-05T08:01:20;21.93;;;16.67;;
9288;SDS011;4683;50.864;12.086;2022-12-05T08:03:51;18.27;;;15.87;;
9288;SDS011;4683;50.864;12.086;2022-12-05T08:06:24;21.03;;;15.43;;
9288;SDS011;4683;50.864;12.086;2022-12-05T08:08:55;23.50;;;17.83;;
9288;SDS011;4683;50.864;12.086;2022-12-05T08:11:24;19.90;;;15.47;;
9288;SDS011;4683;50.864;12.086;2022-12-05T08:13:57;19.40;;;15.20;;
9288;SDS011;4683;50.864;12.086;2022-12-05T08:16:27;17.47;;;15.67;;
9288;SDS011;4683;50.864;12.086;2022-12-05T08:18:57;18.93;;;15.60;;
9288;SDS011;4683;50.864;12.086;2022-12-05T08:21:27;20.63;;;16.37;;
9288;SDS011;4683;50.864;12.086;2022-12-05T08:23:55;19.93;;;15.70;;
9288;SDS011;4683;50.864;12.086;2022-12-05T08:26:25;19.93;;;15.67;;
9288;SDS011;4683;50.864;12.086;2022-12-05T08:28:56;19.93;;;14.33;;
9288;SDS011;4683;50.864;12.086;2022-12-05T08:31:29;20.73;;;14.87;;
9288;SDS011;4683;50.864;12.086;2022-12-05T08:34:03;18.97;;;15.13;;
9288;SDS011;4683;50.864;12.086;2022-12-05T08:36:32;18.93;;;13.93;;
9288;SDS011;4683;50.864;12.086;2022-12-05T08:39:02;17.70;;;13.67;;
9288;SDS011;4683;50.864;12.086;2022-12-05T08:41:35;19.57;;;15.13;;
9288;SDS011;4683;50.864;12.086;2022-12-05T08:44:04;18.20;;;14.93;;
9288;SDS011;4683;50.864;12.086;2022-12-05T08:46:36;18.73;;;14.27;;
9288;SDS011;4683;50.864;12.086;2022-12-05T08:49:05;20.80;;;16.47;;
9288;SDS011;4683;50.864;12.086;2022-12-05T08:51:33;21.73;;;17.43;;
9288;SDS011;4683;50.864;12.086;2022-12-05T08:54:02;23.00;;;17.53;;
9288;SDS011;4683;50.864;12.086;2022-12-05T08:56:32;16.93;;;14.67;;
9288;SDS011;4683;50.864;12.086;2022-12-05T08:59:03;21.93;;;16.93;;
9288;SDS011;4683;50.864;12.086;2022-12-05T09:01:33;21.47;;;17.20;;
9288;SDS011;4683;50.864;12.086;2022-12-05T09:04:04;24.67;;;17.40;;
9288;SDS011;4683;50.864;12.086;2022-12-05T09:06:33;21.80;;;17.40;;
9288;SDS011;4683;50.864;12.086;2022-12-05T09:09:05;23.23;;;17.90;;
9288;SDS011;4683;50.864;12.086;2022-12-05T09:11:38;25.47;;;17.47;;
9288;SDS011;4683;50.864;12.086;2022-12-05T09:14:11;20.23;;;15.43;;
9288;SDS011;4683;50.864;12.086;2022-12-05T09:16:42;19.47;;;15.17;;
9288;SDS011;4683;50.864;12.086;2022-12-05T09:19:12;22.50;;;16.77;;
9288;SDS011;4683;50.864;12.086;2022-12-05T09:21:43;21.20;;;16.23;;
9288;SDS011;4683;50.864;12.086;2022-12-05T09:24:12;21.10;;;15.77;;
9288;SDS011;4683;50.864;12.086;2022-12-05T09:26:40;23.10;;;17.13;;
9288;SDS011;4683;50.864;12.086;2022-12-05T09:29:09;21.33;;;16.60;;
9288;SDS011;4683;50.864;12.086;2022-12-05T09:31:41;20.17;;;15.53;;
9288;SDS011;4683;50.864;12.086;2022-12-05T09:34:12;19.87;;;15.73;;
9288;SDS011;4683;50.864;12.086;2022-12-05T09:36:43;21.47;;;16.40;;
9288;SDS011;4683;50.864;12.086;2022-12-05T09:39:14;22.60;;;16.73;;
9288;SDS011;4683;50.864;12.086;2022-12-05T09:45:17;22.63;;;17.27;;
9288;SDS011;4683;50.864;12.086;2022-12-05T09:47:57;22.80;;;16.83;;
9288;SDS011;4683;50.864;12.086;2022-12-05T09:50:32;24.33;;;16.97;;
9288;SDS011;4683;50.864;12.086;2022-12-05T09:53:11;21.50;;;16.33;;
9288;SDS011;4683;50.864;12.086;2022-12-05T09:55:54;21.57;;;15.73;;
9288;SDS011;4683;50.864;12.086;2022-12-05T09:58:29;23.00;;;17.60;;
9288;SDS011;4683;50.864;12.086;2022-12-05T10:01:18;21.30;;;16.83;;
9288;SDS011;4683;50.864;12.086;2022-12-05T10:04:03;23.53;;;15.93;;
9288;SDS011;4683;50.864;12.086;2022-12-05T10:06:52;23.37;;;16.90;;
9288;SDS011;4683;50.864;12.086;2022-12-05T10:09:37;23.20;;;17.53;;
9288;SDS011;4683;50.864;12.086;2022-12-05T10:12:20;25.47;;;18.63;;
9288;SDS011;4683;50.864;12.086;2022-12-05T10:15:13;21.73;;;17.60;;
9288;SDS011;4683;50.864;12.086;2022-12-05T10:17:51;21.80;;;17.20;;
9288;SDS011;4683;50.864;12.086;2022-12-05T10:20:27;22.40;;;17.07;;
9288;SDS011;4683;50.864;12.086;2022-12-05T10:23:10;23.43;;;17.43;;
9288;SDS011;4683;50.864;12.086;2022-12-05T10:25:44;22.80;;;17.50;;
9288;SDS011;4683;50.864;12.086;2022-12-05T10:28:14;23.70;;;18.70;;
9288;SDS011;4683;50.864;12.086;2022-12-05T10:30:51;25.47;;;18.30;;
9288;SDS011;4683;50.864;12.086;2022-12-05T10:33:29;23.17;;;19.30;;
9288;SDS011;4683;50.864;12.086;2022-12-05T10:36:12;32.00;;;26.93;;
9288;SDS011;4683;50.864;12.086;2022-12-05T10:38:41;37.90;;;33.83;;
9288;SDS011;4683;50.864;12.086;2022-12-05T10:41:12;119.37;;;107.70;;
9288;SDS011;4683;50.864;12.086;2022-12-05T10:43:42;97.53;;;87.83;;
9288;SDS011;4683;50.864;12.086;2022-12-05T10:46:12;37.47;;;33.50;;
9288;SDS011;4683;50.864;12.086;2022-12-05T10:48:43;34.70;;;31.00;;
9288;SDS011;4683;50.864;12.086;2022-12-05T10:51:14;24.67;;;21.90;;
9288;SDS011;4683;50.864;12.086;2022-12-05T10:53:45;33.37;;;28.40;;
9288;SDS011;4683;50.864;12.086;2022-12-05T10:56:35;25.57;;;18.10;;
9288;SDS011;4683;50.864;12.086;2022-12-05T10:59:06;22.43;;;17.30;;
9288;SDS011;4683;50.864;12.086;2022-12-05T11:01:36;23.00;;;16.73;;
9288;SDS011;4683;50.864;12.086;2022-12-05T11:04:17;21.93;;;16.87;;
9288;SDS011;4683;50.864;12.086;2022-12-05T11:06:53;23.03;;;17.77;;
9288;SDS011;4683;50.864;12.086;2022-12-05T11:09:25;22.87;;;16.40;;
9288;SDS011;4683;50.864;12.086;2022-12-05T11:12:03;23.03;;;16.77;;
9288;SDS011;4683;50.864;12.086;2022-12-05T11:14:52;19.77;;;16.00;;
9288;SDS011;4683;50.864;12.086;2022-12-05T11:17:25;21.17;;;16.03;;
9288;SDS011;4683;50.864;12.086;2022-12-05T11:19:59;23.83;;;15.27;;
9288;SDS011;4683;50.864;12.086;2022-12-05T11:22:33;21.20;;;16.40;;
9288;SDS011;4683;50.864;12.086;2022-12-05T11:27:54;19.47;;;17.20;;
9288;SDS011;4683;50.864;12.086;2022-12-05T11:30:26;21.20;;;18.40;;
9288;SDS011;4683;50.864;12.086;2022-12-05T11:33:09;17.90;;;15.27;;
9288;SDS011;4683;50.864;12.086;2022-12-05T11:35:44;20.50;;;16.30;;
9288;SDS011;4683;50.864;12.086;2022-12-05T11:38:16;18.33;;;14.60;;
9288;SDS011;4683;50.864;12.086;2022-12-05T11:40:50;17.90;;;15.03;;
9288;SDS011;4683;50.864;12.086;2022-12-05T11:43:34;20.07;;;15.30;;
9288;SDS011;4683;50.864;12.086;2022-12-05T11:46:30;20.90;;;16.30;;
9288;SDS011;4683;50.864;12.086;2022-12-05T11:49:14;19.33;;;14.30;;
9288;SDS011;4683;50.864;12.086;2022-12-05T11:52:02;18.83;;;14.43;;
9288;SDS011;4683;50.864;12.086;2022-12-05T11:54:55;19.97;;;15.10;;
9288;SDS011;4683;50.864;12.086;2022-12-05T11:57:42;23.40;;;18.10;;
9288;SDS011;4683;50.864;12.086;2022-12-05T12:00:42;21.17;;;16.13;;
9288;SDS011;4683;50.864;12.086;2022-12-05T12:03:31;16.50;;;13.20;;
9288;SDS011;4683;50.864;12.086;2022-12-05T12:06:28;21.17;;;17.10;;
9288;SDS011;4683;50.864;12.086;2022-12-05T12:09:10;27.10;;;21.60;;
9288;SDS011;4683;50.864;12.086;2022-12-05T12:12:00;17.30;;;14.83;;
9288;SDS011;4683;50.864;12.086;2022-12-05T12:14:35;18.40;;;14.40;;
9288;SDS011;4683;50.864;12.086;2022-12-05T12:17:15;15.83;;;14.07;;
9288;SDS011;4683;50.864;12.086;2022-12-05T12:19:55;16.93;;;13.60;;
9288;SDS011;4683;50.864;12.086;2022-12-05T12:23:08;15.80;;;12.70;;
9288;SDS011;4683;50.864;12.086;2022-12-05T12:25:57;23.57;;;17.20;;
9288;SDS011;4683;50.864;12.086;2022-12-05T12:28:38;14.23;;;12.57;;
9288;SDS011;4683;50.864;12.086;2022-12-05T12:31:19;15.37;;;12.03;;
9288;SDS011;4683;50.864;12.086;2022-12-05T12:34:20;17.93;;;13.47;;
9288;SDS011;4683;50.864;12.086;2022-12-05T12:37:19;22.30;;;14.07;;
9288;SDS011;4683;50.864;12.086;2022-12-05T12:40:03;18.33;;;14.33;;
9288;SDS011;4683;50.864;12.086;2022-12-05T12:42:43;14.70;;;11.57;;
9288;SDS011;4683;50.864;12.086;2022-12-05T12:48:52;15.00;;;12.23;;
9288;SDS011;4683;50.864;12.086;2022-12-05T12:51:47;20.43;;;15.87;;
9288;SDS011;4683;50.864;12.086;2022-12-05T12:54:37;20.23;;;14.13;;
9288;SDS011;4683;50.864;12.086;2022-12-05T12:57:45;19.03;;;14.53;;
9288;SDS011;4683;50.864;12.086;2022-12-05T13:00:36;13.60;;;11.10;;
9288;SDS011;4683;50.864;12.086;2022-12-05T13:03:18;14.50;;;12.17;;
9288;SDS011;4683;50.864;12.086;2022-12-05T13:05:54;17.60;;;12.60;;
9288;SDS011;4683;50.864;12.086;2022-12-05T13:08:28;15.97;;;12.50;;
9288;SDS011;4683;50.864;12.086;2022-12-05T13:11:03;17.13;;;14.37;;
9288;SDS011;4683;50.864;12.086;2022-12-05T13:13:37;11.83;;;10.53;;
9288;SDS011;4683;50.864;12.086;2022-12-05T13:16:12;14.60;;;10.67;;
9288;SDS011;4683;50.864;12.086;2022-12-05T13:18:49;10.87;;;9.07;;
9288;SDS011;4683;50.864;12.086;2022-12-05T13:21:19;12.17;;;9.73;;
9288;SDS011;4683;50.864;12.086;2022-12-05T13:23:49;17.50;;;14.43;;
9288;SDS011;4683;50.864;12.086;2022-12-05T13:26:22;12.87;;;10.60;;
9288;SDS011;4683;50.864;12.086;2022-12-05T13:28:51;16.93;;;13.90;;
9288;SDS011;4683;50.864;12.086;2022-12-05T13:31:36;16.93;;;13.83;;
9288;SDS011;4683;50.864;12.086;2022-12-05T13:37:16;17.60;;;13.83;;
9288;SDS011;4683;50.864;12.086;2022-12-05T13:40:18;25.47;;;20.27;;
9288;SDS011;4683;50.864;12.086;2022-12-05T13:43:10;19.70;;;15.67;;
9288;SDS011;4683;50.864;12.086;2022-12-05T13:45:50;15.37;;;11.77;;
9288;SDS011;4683;50.864;12.086;2022-12-05T13:48:32;18.83;;;12.93;;
9288;SDS011;4683;50.864;12.086;2022-12-05T13:51:04;17.03;;;12.77;;
9288;SDS011;4683;50.864;12.086;2022-12-05T13:53:42;23.27;;;16.77;;
9288;SDS011;4683;50.864;12.086;2022-12-05T13:56:24;15.20;;;12.73;;
9288;SDS011;4683;50.864;12.086;2022-12-05T14:05:59;13.17;;;10.20;;
9288;SDS011;4683;50.864;12.086;2022-12-05T14:11:20;13.27;;;10.50;;
9288;SDS011;4683;50.864;12.086;2022-12-05T14:13:48;11.63;;;10.43;;
9288;SDS011;4683;50.864;12.086;2022-12-05T14:25:16;17.13;;;12.33;;
9288;SDS011;4683;50.864;12.086;2022-12-05T14:28:01;18.37;;;13.60;;
9288;SDS011;4683;50.864;12.086;2022-12-05T14:30:48;15.73;;;12.03;;
9288;SDS011;4683;50.864;12.086;2022-12-05T14:33:35;17.10;;;13.50;;
9288;SDS011;4683;50.864;12.086;2022-12-05T14:36:04;16.67;;;14.57;;
9288;SDS011;4683;50.864;12.086;2022-12-05T14:38:39;23.83;;;19.03;;
9288;SDS011;4683;50.864;12.086;2022-12-05T14:41:13;18.17;;;14.13;;
9288;SDS011;4683;50.864;12.086;2022-12-05T14:43:51;14.97;;;12.23;;
9288;SDS011;4683;50.864;12.086;2022-12-05T14:46:23;29.80;;;19.00;;
9288;SDS011;4683;50.864;12.086;2022-12-05T14:48:55;21.77;;;17.77;;
9288;SDS011;4683;50.864;12.086;2022-12-05T14:51:42;28.97;;;19.67;;
9288;SDS011;4683;50.864;12.086;2022-12-05T14:54:22;29.60;;;22.47;;
9288;SDS011;4683;50.864;12.086;2022-12-05T14:56:55;31.17;;;24.73;;
9288;SDS011;4683;50.864;12.086;2022-12-05T14:59:34;13.03;;;11.43;;
9288;SDS011;4683;50.864;12.086;2022-12-05T15:02:15;16.07;;;12.10;;
9288;SDS011;4683;50.864;12.086;2022-12-05T15:04:53;14.93;;;11.80;;
9288;SDS011;4683;50.864;12.086;2022-12-05T15:07:28;13.87;;;11.87;;
9288;SDS011;4683;50.864;12.086;2022-12-05T15:10:02;18.90;;;13.57;;
9288;SDS011;4683;50.864;12.086;2022-12-05T15:12:36;13.73;;;12.23;;
9288;SDS011;4683;50.864;12.086;2022-12-05T15:15:11;13.50;;;12.10;;
9288;SDS011;4683;50.864;12.086;2022-12-05T15:17:48;12.43;;;11.13;;
9288;SDS011;4683;50.864;12.086;2022-12-05T15:20:25;14.33;;;12.03;;
9288;SDS011;4683;50.864;12.086;2022-12-05T15:23:02;13.80;;;12.27;;
9288;SDS011;4683;50.864;12.086;2022-12-05T15:25:53;13.17;;;11.80;;
9288;SDS011;4683;50.864;12.086;2022-12-05T15:28:23;17.27;;;14.37;;
9288;SDS011;4683;50.864;12.086;2022-12-05T15:30:53;18.03;;;14.13;;
9288;SDS011;4683;50.864;12.086;2022-12-05T15:33:23;14.90;;;13.27;;
9288;SDS011;4683;50.864;12.086;2022-12-05T15:35:53;17.63;;;13.27;;
9288;SDS011;4683;50.864;12.086;2022-12-05T15:38:23;14.60;;;12.17;;
9288;SDS011;4683;50.864;12.086;2022-12-05T15:40:57;13.80;;;12.10;;
9288;SDS011;4683;50.864;12.086;2022-12-05T15:43:27;15.17;;;13.57;;
9288;SDS011;4683;50.864;12.086;2022-12-05T15:48:52;15.13;;;12.83;;
9288;SDS011;4683;50.864;12.086;2022-12-05T15:51:27;14.93;;;12.67;;
9288;SDS011;4683;50.864;12.086;2022-12-05T15:54:04;16.87;;;14.20;;
9288;SDS011;4683;50.864;12.086;2022-12-05T15:56:38;20.77;;;15.83;;